Time;durP1;ratioP1;P1;durP2;ratioP2;P2;SDS_P1;SDS_P2;PMS_P1;PMS_P2;Temp;Humidity;BMP_temperature;BMP_pressure;BME280_temperature;BME280_humidity;BME280_pressure;Samples;Min_cycle;Max_cycle;Signal;HPM_P1;HPM_P2
2023/03/27 00:00:41;;;;;;;10.13;2.38;;;6.60;91.60;;;;;;5092711;28;20028;-71
2023/03/27 00:03:08;;;;;;;4.65;2.75;;;6.60;91.80;;;;;;5089711;28;20052;-70
2023/03/27 00:05:34;;;;;;;4.95;2.58;;;6.60;91.70;;;;;;5077311;28;20034;-71
2023/03/27 00:08:00;;;;;;;6.65;2.38;;;6.60;91.70;;;;;;5093216;28;20106;-71
2023/03/27 00:10:26;;;;;;;6.38;1.92;;;6.50;91.70;;;;;;5096320;28;20479;-71
2023/03/27 00:12:53;;;;;;;9.68;2.50;;;6.50;91.70;;;;;;5091496;28;20020;-71
2023/03/27 00:15:20;;;;;;;9.88;2.67;;;6.50;91.70;;;;;;5093668;28;20085;-71
2023/03/27 00:17:47;;;;;;;6.47;2.25;;;6.60;91.80;;;;;;5101411;28;20072;-71
2023/03/27 00:20:15;;;;;;;4.82;1.90;;;6.50;91.70;;;;;;5093865;28;20508;-71
2023/03/27 00:22:41;;;;;;;4.15;1.92;;;6.50;91.70;;;;;;5105608;28;20028;-71
2023/03/27 00:25:09;;;;;;;8.75;2.47;;;6.40;91.70;;;;;;5099685;28;20047;-71
2023/03/27 00:27:35;;;;;;;6.30;2.47;;;6.40;91.80;;;;;;5092148;28;20069;-71
2023/03/27 00:30:05;;;;;;;3.92;2.28;;;6.40;91.70;;;;;;5094899;28;20155;-71
2023/03/27 00:32:31;;;;;;;5.82;2.30;;;6.40;91.80;;;;;;5088658;28;20356;-71
2023/03/27 00:34:56;;;;;;;6.03;2.63;;;6.40;91.90;;;;;;5076628;28;20032;-71
2023/03/27 00:37:22;;;;;;;7.55;2.15;;;6.40;92.00;;;;;;5101574;28;20046;-71
2023/03/27 00:39:49;;;;;;;5.40;2.35;;;6.40;92.00;;;;;;5091507;28;20111;-71
2023/03/27 00:42:21;;;;;;;5.88;1.90;;;6.40;92.00;;;;;;5091655;28;20127;-71
2023/03/27 00:44:50;;;;;;;5.55;2.70;;;6.30;92.00;;;;;;5096133;28;20137;-71
2023/03/27 00:47:24;;;;;;;5.95;2.30;;;6.30;91.90;;;;;;5104399;28;20470;-71
2023/03/27 00:49:51;;;;;;;5.60;2.60;;;6.40;92.00;;;;;;5114230;28;20032;-71
2023/03/27 00:52:18;;;;;;;6.38;2.78;;;6.40;92.10;;;;;;5091491;28;20051;-71
2023/03/27 00:54:44;;;;;;;5.35;2.65;;;6.40;92.10;;;;;;5107958;28;20039;-71
2023/03/27 00:57:17;;;;;;;3.55;1.85;;;6.40;92.20;;;;;;5091257;28;20031;-71
2023/03/27 00:59:44;;;;;;;6.20;2.72;;;6.40;92.40;;;;;;5096016;28;20051;-71
2023/03/27 01:02:11;;;;;;;4.63;2.15;;;6.30;92.30;;;;;;5092614;28;20537;-72
2023/03/27 01:04:38;;;;;;;5.05;2.20;;;6.40;92.30;;;;;;5085502;28;20032;-73
2023/03/27 01:07:06;;;;;;;5.70;2.40;;;6.40;92.30;;;;;;5091764;28;20099;-73
2023/03/27 01:09:32;;;;;;;6.75;2.50;;;6.30;92.40;;;;;;5099824;28;20040;-71
2023/03/27 01:12:17;;;;;;;7.57;2.85;;;6.30;92.40;;;;;;5092933;28;20472;-72
2023/03/27 01:14:56;;;;;;;4.55;2.38;;;6.20;92.50;;;;;;5085120;28;20032;-72
2023/03/27 01:17:40;;;;;;;6.97;2.95;;;6.20;92.60;;;;;;5100190;28;20105;-72
2023/03/27 01:20:15;;;;;;;4.18;1.98;;;6.10;92.60;;;;;;5092159;28;20080;-72
2023/03/27 01:23:02;;;;;;;5.50;2.67;;;6.10;92.60;;;;;;5094665;28;20027;-72
2023/03/27 01:25:36;;;;;;;7.45;3.25;;;6.10;92.70;;;;;;5104775;28;20029;-71
2023/03/27 01:28:13;;;;;;;5.82;2.55;;;6.10;92.70;;;;;;5090493;28;20118;-71
2023/03/27 01:31:08;;;;;;;6.28;3.30;;;6.00;92.70;;;;;;5089560;28;20479;-71
2023/03/27 01:33:40;;;;;;;9.55;3.03;;;6.00;92.80;;;;;;5079936;28;20056;-72
2023/03/27 01:36:20;;;;;;;6.63;2.58;;;6.00;93.00;;;;;;5086132;28;20115;-71
2023/03/27 01:39:23;;;;;;;4.65;2.38;;;5.90;93.20;;;;;;5102288;28;20020;-72
2023/03/27 01:42:06;;;;;;;2.95;1.92;;;5.90;93.20;;;;;;5090566;28;20157;-71
2023/03/27 01:44:56;;;;;;;4.68;2.22;;;5.90;93.20;;;;;;5092366;28;20109;-71
2023/03/27 01:47:45;;;;;;;3.72;2.17;;;5.90;93.40;;;;;;5073334;28;20021;-69
2023/03/27 01:50:26;;;;;;;5.95;2.25;;;5.80;93.30;;;;;;5091053;28;20044;-69
2023/03/27 01:53:14;;;;;;;6.68;2.60;;;5.80;93.40;;;;;;5093157;28;20023;-70
2023/03/27 01:55:46;;;;;;;6.25;2.85;;;5.80;93.70;;;;;;5076471;28;20039;-70
2023/03/27 01:58:34;;;;;;;4.40;1.90;;;5.70;93.50;;;;;;5092704;28;20028;-71
2023/03/27 02:01:09;;;;;;;6.97;2.08;;;5.70;93.60;;;;;;5055321;28;20421;-70
2023/03/27 02:03:42;;;;;;;4.47;1.95;;;5.70;93.50;;;;;;5059142;28;20117;-70
2023/03/27 02:06:12;;;;;;;4.38;1.83;;;5.70;93.60;;;;;;5043480;28;20033;-70
2023/03/27 02:09:00;;;;;;;3.50;1.63;;;5.70;93.60;;;;;;5042709;28;20108;-70
2023/03/27 02:11:30;;;;;;;9.05;2.28;;;5.60;93.50;;;;;;5029081;28;20059;-70
2023/03/27 02:14:02;;;;;;;5.47;2.33;;;5.70;93.60;;;;;;5041955;28;20032;-70
2023/03/27 02:16:34;;;;;;;2.55;1.45;;;5.70;93.70;;;;;;5046197;28;20029;-70
2023/03/27 02:19:13;;;;;;;3.65;1.77;;;5.60;93.50;;;;;;5028440;28;20493;-70
2023/03/27 02:21:39;;;;;;;2.35;1.85;;;5.70;93.50;;;;;;5037076;28;20033;-70
2023/03/27 02:24:04;;;;;;;4.05;2.00;;;5.70;93.40;;;;;;5029132;28;20029;-70
2023/03/27 02:26:32;;;;;;;6.45;1.75;;;5.70;93.40;;;;;;5030494;28;20365;-69
2023/03/27 02:29:31;;;;;;;2.63;1.52;;;5.60;93.30;;;;;;5034067;28;20033;-70
2023/03/27 02:32:17;;;;;;;2.40;1.40;;;5.50;93.30;;;;;;5032973;28;20033;-70
2023/03/27 02:35:01;;;;;;;4.93;2.08;;;5.50;93.20;;;;;;5037236;28;20032;-70
2023/03/27 02:37:57;;;;;;;3.15;1.42;;;5.40;93.30;;;;;;5033843;28;20385;-69
2023/03/27 02:40:34;;;;;;;3.45;1.67;;;5.30;93.40;;;;;;5031104;28;20049;-70
2023/03/27 02:43:11;;;;;;;5.00;1.75;;;5.30;93.40;;;;;;5034029;28;20369;-69
2023/03/27 02:45:46;;;;;;;6.45;2.20;;;5.20;93.30;;;;;;5042948;28;20040;-72
2023/03/27 02:48:57;;;;;;;4.00;1.50;;;5.20;93.50;;;;;;5054724;28;20084;-70
2023/03/27 02:51:34;;;;;;;3.83;1.50;;;5.20;93.70;;;;;;5032444;28;20153;-69
2023/03/27 02:54:15;;;;;;;6.95;1.73;;;5.10;93.40;;;;;;5040571;28;20029;-70
2023/03/27 02:56:46;;;;;;;4.38;1.60;;;5.10;93.40;;;;;;5053592;28;20033;-70
2023/03/27 02:59:26;;;;;;;2.83;1.60;;;5.10;93.50;;;;;;5029191;28;20133;-71
2023/03/27 03:01:53;;;;;;;2.05;1.10;;;5.00;93.50;;;;;;5042666;28;20047;-72
2023/03/27 03:04:40;;;;;;;2.63;1.50;;;5.00;93.60;;;;;;5042900;28;20025;-71
2023/03/27 03:07:07;;;;;;;5.35;1.67;;;5.00;93.60;;;;;;5054229;28;20036;-71
2023/03/27 03:09:33;;;;;;;3.38;1.40;;;5.00;93.50;;;;;;5031938;28;20029;-69
2023/03/27 03:11:59;;;;;;;3.35;1.65;;;5.00;93.50;;;;;;5035932;28;20034;-70
2023/03/27 03:14:32;;;;;;;2.88;1.77;;;5.00;93.40;;;;;;5022292;28;20443;-69
2023/03/27 03:16:58;;;;;;;2.63;1.23;;;5.00;93.30;;;;;;5033866;28;20358;-69
2023/03/27 03:19:23;;;;;;;2.08;1.30;;;5.00;93.20;;;;;;5022068;28;20048;-71
2023/03/27 03:21:49;;;;;;;3.00;1.38;;;5.00;92.90;;;;;;5046997;28;20029;-69
2023/03/27 03:24:20;;;;;;;2.97;1.45;;;5.00;92.90;;;;;;5030145;28;20366;-70
2023/03/27 03:26:48;;;;;;;4.10;1.75;;;5.00;92.70;;;;;;5024837;28;20029;-70
2023/03/27 03:29:15;;;;;;;2.22;1.40;;;5.00;92.40;;;;;;5024177;28;20033;-70
2023/03/27 03:31:43;;;;;;;2.42;1.38;;;4.90;92.40;;;;;;5026923;28;20034;-70
2023/03/27 03:34:15;;;;;;;3.47;1.40;;;4.90;92.50;;;;;;5013684;28;20080;-69
2023/03/27 03:36:43;;;;;;;2.15;1.25;;;4.90;92.50;;;;;;5043017;28;20112;-69
2023/03/27 03:39:11;;;;;;;2.95;1.25;;;4.90;92.50;;;;;;5031334;28;20413;-69
2023/03/27 03:41:36;;;;;;;3.75;1.50;;;4.90;92.40;;;;;;5013572;28;20503;-70
2023/03/27 03:44:02;;;;;;;1.50;1.10;;;4.80;92.50;;;;;;5027145;28;20029;-70
2023/03/27 03:46:31;;;;;;;3.80;1.52;;;4.80;92.50;;;;;;5052793;28;20024;-70
2023/03/27 03:48:56;;;;;;;5.47;1.80;;;4.70;92.50;;;;;;5020442;28;20077;-69
2023/03/27 03:51:22;;;;;;;3.83;1.92;;;4.70;92.60;;;;;;5031057;28;20030;-69
2023/03/27 03:53:47;;;;;;;4.70;1.50;;;4.60;92.60;;;;;;5030841;28;20029;-69
2023/03/27 03:56:13;;;;;;;2.47;1.50;;;4.60;92.60;;;;;;5028356;28;20056;-69
2023/03/27 03:58:39;;;;;;;2.03;1.42;;;4.60;92.70;;;;;;5025919;28;20081;-69
2023/03/27 04:01:05;;;;;;;2.70;1.50;;;4.60;92.70;;;;;;5016802;28;20524;-68
2023/03/27 04:03:31;;;;;;;3.30;1.50;;;4.60;92.80;;;;;;5025345;28;20022;-68
2023/03/27 04:06:00;;;;;;;3.00;1.17;;;4.60;92.80;;;;;;5017567;28;20161;-69
2023/03/27 04:08:27;;;;;;;3.63;1.50;;;4.60;92.90;;;;;;5021338;28;20122;-69
2023/03/27 04:10:52;;;;;;;3.83;1.65;;;4.60;92.90;;;;;;5013658;28;20033;-69
2023/03/27 04:13:18;;;;;;;2.50;1.48;;;4.70;93.00;;;;;;5017133;28;20025;-68
2023/03/27 04:15:44;;;;;;;1.52;1.30;;;4.70;92.90;;;;;;5028911;28;20045;-69
2023/03/27 04:18:09;;;;;;;3.40;1.90;;;4.70;93.00;;;;;;5016513;28;20056;-69
2023/03/27 04:20:35;;;;;;;2.85;1.38;;;4.70;92.90;;;;;;5012860;28;20038;-70
2023/03/27 04:23:01;;;;;;;3.15;1.60;;;4.70;92.90;;;;;;5014478;28;20068;-69
2023/03/27 04:25:27;;;;;;;9.85;1.88;;;4.60;93.00;;;;;;5013325;28;20038;-69
2023/03/27 04:27:53;;;;;;;4.30;1.63;;;4.60;93.00;;;;;;5022774;28;20046;-69
2023/03/27 04:30:23;;;;;;;2.20;1.25;;;4.60;93.20;;;;;;5016067;28;20432;-69
2023/03/27 04:32:51;;;;;;;2.20;1.80;;;4.60;93.20;;;;;;5039591;28;20053;-69
2023/03/27 04:35:18;;;;;;;3.47;1.50;;;4.70;93.20;;;;;;5021230;28;20040;-69
2023/03/27 04:37:45;;;;;;;2.25;1.45;;;4.60;93.10;;;;;;5025813;28;20025;-70
2023/03/27 04:40:13;;;;;;;3.42;1.60;;;4.60;93.10;;;;;;5019838;28;20091;-69
2023/03/27 04:42:43;;;;;;;2.10;1.50;;;4.50;93.10;;;;;;5033111;28;20833;-68
2023/03/27 04:45:11;;;;;;;3.10;1.88;;;4.50;93.40;;;;;;5020749;28;20045;-69
2023/03/27 04:47:37;;;;;;;2.20;1.58;;;4.40;93.20;;;;;;5020867;28;20509;-69
2023/03/27 04:50:04;;;;;;;3.00;1.42;;;4.40;93.20;;;;;;5012950;28;20068;-70
2023/03/27 04:52:32;;;;;;;2.33;1.65;;;4.40;93.30;;;;;;5019810;28;20041;-70
2023/03/27 04:54:59;;;;;;;3.38;1.40;;;4.40;93.30;;;;;;5015351;28;20129;-70
2023/03/27 04:57:26;;;;;;;2.67;1.60;;;4.40;93.20;;;;;;5038841;28;20434;-70
2023/03/27 04:59:52;;;;;;;3.33;1.63;;;4.40;93.40;;;;;;5030563;28;20497;-70
2023/03/27 05:02:17;;;;;;;3.28;1.58;;;4.40;93.30;;;;;;5029007;28;20032;-71
2023/03/27 05:04:44;;;;;;;1.77;1.42;;;4.40;93.30;;;;;;5011783;28;20026;-71
2023/03/27 05:07:11;;;;;;;3.47;2.15;;;4.30;93.20;;;;;;5019681;28;20042;-70
2023/03/27 05:09:36;;;;;;;2.70;1.75;;;4.40;93.20;;;;;;5020180;28;20032;-71
2023/03/27 05:12:02;;;;;;;3.75;1.58;;;4.40;93.30;;;;;;5040276;28;20116;-71
2023/03/27 05:14:28;;;;;;;3.47;1.60;;;4.50;93.30;;;;;;5014320;28;20037;-71
2023/03/27 05:16:56;;;;;;;4.97;1.60;;;4.50;93.40;;;;;;5031923;28;20033;-71
2023/03/27 05:19:22;;;;;;;5.78;1.95;;;4.50;93.40;;;;;;5025147;28;20400;-72
2023/03/27 05:21:48;;;;;;;3.38;2.00;;;4.70;93.50;;;;;;5028889;28;20025;-73
2023/03/27 05:24:14;;;;;;;5.32;1.90;;;4.80;93.50;;;;;;5034788;28;20034;-72
2023/03/27 05:26:40;;;;;;;4.53;2.20;;;4.90;93.70;;;;;;5017620;28;20076;-69
2023/03/27 05:29:07;;;;;;;3.97;1.92;;;4.90;93.40;;;;;;5011670;28;20061;-70
2023/03/27 05:31:34;;;;;;;3.47;2.30;;;5.00;93.40;;;;;;5015525;28;20045;-71
2023/03/27 05:34:01;;;;;;;4.35;2.17;;;5.10;93.30;;;;;;5023245;28;20048;-71
2023/03/27 05:36:28;;;;;;;4.18;2.10;;;5.00;93.20;;;;;;5029945;28;20051;-71
2023/03/27 05:38:56;;;;;;;4.10;2.45;;;5.00;93.10;;;;;;5021794;28;20068;-71
2023/03/27 05:41:23;;;;;;;3.88;1.70;;;5.00;93.00;;;;;;5034901;28;20079;-71
2023/03/27 05:43:50;;;;;;;5.00;2.00;;;4.90;93.20;;;;;;5016468;28;20037;-71
2023/03/27 05:46:16;;;;;;;2.55;1.73;;;4.90;93.20;;;;;;5035465;28;20037;-71
2023/03/27 05:48:42;;;;;;;2.80;1.73;;;4.90;93.20;;;;;;5019685;28;20040;-71
2023/03/27 05:51:11;;;;;;;2.63;1.80;;;4.80;93.10;;;;;;5039960;28;20412;-70
2023/03/27 05:53:39;;;;;;;6.43;2.13;;;4.80;93.20;;;;;;5044679;28;20025;-71
2023/03/27 05:56:07;;;;;;;3.83;2.00;;;4.90;93.30;;;;;;5011406;28;20034;-70
2023/03/27 05:58:33;;;;;;;2.53;1.50;;;4.80;93.20;;;;;;5016358;28;20392;-69
2023/03/27 06:00:59;;;;;;;4.25;2.10;;;4.80;93.30;;;;;;5025953;28;20049;-69
2023/03/27 06:03:29;;;;;;;4.75;2.30;;;4.90;93.40;;;;;;5022906;28;20036;-70
2023/03/27 06:05:55;;;;;;;4.90;2.72;;;4.90;93.40;;;;;;5013511;28;20038;-70
2023/03/27 06:08:21;;;;;;;5.28;2.85;;;4.90;93.40;;;;;;5032657;28;20026;-70
2023/03/27 06:10:49;;;;;;;4.38;2.17;;;4.90;93.40;;;;;;5046361;28;20504;-70
2023/03/27 06:13:15;;;;;;;4.15;2.65;;;4.80;93.40;;;;;;5037772;28;20030;-70
2023/03/27 06:15:42;;;;;;;2.53;1.65;;;4.80;93.40;;;;;;5012564;28;20038;-70
2023/03/27 06:18:09;;;;;;;3.72;1.90;;;4.90;93.40;;;;;;5019718;28;20030;-71
2023/03/27 06:20:38;;;;;;;3.03;1.88;;;4.90;93.40;;;;;;5028631;28;20045;-70
2023/03/27 06:23:08;;;;;;;2.88;2.10;;;4.90;93.40;;;;;;5041538;28;20139;-68
2023/03/27 06:25:35;;;;;;;2.85;2.17;;;4.90;93.40;;;;;;5021821;28;20456;-70
2023/03/27 06:28:03;;;;;;;5.28;2.00;;;4.90;93.30;;;;;;5021887;28;20025;-70
2023/03/27 06:30:29;;;;;;;3.22;1.98;;;4.90;93.30;;;;;;5013886;28;20045;-68
2023/03/27 06:32:57;;;;;;;3.08;1.92;;;4.90;93.20;;;;;;5010647;28;20072;-69
2023/03/27 06:35:24;;;;;;;3.83;1.90;;;4.90;93.20;;;;;;5026468;28;20041;-70
2023/03/27 06:37:50;;;;;;;3.63;1.67;;;5.00;93.10;;;;;;5037619;28;20078;-70
2023/03/27 06:40:22;;;;;;;2.40;1.80;;;5.00;93.00;;;;;;5013278;28;20081;-68
2023/03/27 06:43:02;;;;;;;2.63;1.80;;;5.00;93.00;;;;;;5026574;28;20029;-69
2023/03/27 06:45:37;;;;;;;4.78;2.20;;;5.10;93.10;;;;;;5018424;28;20037;-68
2023/03/27 06:48:04;;;;;;;4.05;2.30;;;5.20;92.90;;;;;;5031415;28;20112;-68
2023/03/27 06:50:31;;;;;;;4.38;2.20;;;5.20;92.90;;;;;;5029460;28;20041;-69
2023/03/27 06:52:58;;;;;;;4.97;2.70;;;5.30;92.80;;;;;;5028035;28;20477;-69
2023/03/27 06:55:28;;;;;;;5.38;2.08;;;5.40;92.80;;;;;;5023119;28;20032;-69
2023/03/27 06:57:56;;;;;;;4.38;2.05;;;5.30;92.40;;;;;;5026791;28;20536;-69
2023/03/27 07:00:25;;;;;;;2.75;1.60;;;5.40;92.60;;;;;;5015031;28;20049;-69
2023/03/27 07:02:55;;;;;;;3.92;2.15;;;5.50;92.40;;;;;;5032949;28;20026;-69
2023/03/27 07:05:21;;;;;;;2.30;1.70;;;5.60;92.40;;;;;;5021584;28;20041;-69
2023/03/27 07:07:47;;;;;;;3.78;2.10;;;5.70;92.50;;;;;;5023096;28;20374;-69
2023/03/27 07:10:13;;;;;;;4.50;1.88;;;5.70;92.30;;;;;;5018970;28;20123;-69
2023/03/27 07:12:40;;;;;;;4.80;1.90;;;5.80;92.40;;;;;;5023225;28;20021;-69
2023/03/27 07:15:06;;;;;;;4.95;2.42;;;5.70;91.90;;;;;;5023977;28;20068;-69
2023/03/27 07:17:33;;;;;;;2.78;1.73;;;5.70;92.10;;;;;;5033418;28;20469;-69
2023/03/27 07:19:59;;;;;;;4.18;2.42;;;5.70;92.20;;;;;;5020353;28;20046;-69
2023/03/27 07:22:25;;;;;;;3.25;1.83;;;5.70;92.20;;;;;;5017530;28;20392;-70
2023/03/27 07:24:51;;;;;;;5.32;2.28;;;5.70;92.10;;;;;;5026149;28;20060;-70
2023/03/27 07:27:17;;;;;;;3.78;1.88;;;5.70;92.00;;;;;;5028966;28;20162;-70
2023/03/27 07:29:42;;;;;;;5.88;2.30;;;5.80;92.10;;;;;;5017496;28;20034;-69
2023/03/27 07:32:08;;;;;;;4.30;2.33;;;5.70;92.10;;;;;;5029052;28;20021;-70
2023/03/27 07:34:33;;;;;;;4.15;2.35;;;5.70;92.20;;;;;;5025429;28;20060;-69
2023/03/27 07:36:59;;;;;;;6.38;2.53;;;5.70;92.20;;;;;;5013485;28;20030;-69
2023/03/27 07:39:25;;;;;;;5.50;2.30;;;5.80;92.10;;;;;;5017954;28;20034;-69
2023/03/27 07:41:51;;;;;;;2.80;1.50;;;5.80;92.20;;;;;;5016722;28;20018;-70
2023/03/27 07:44:17;;;;;;;4.85;1.98;;;5.90;92.10;;;;;;5031655;28;20025;-69
2023/03/27 07:46:44;;;;;;;3.15;1.75;;;5.90;91.80;;;;;;5025564;28;20029;-69
2023/03/27 07:49:10;;;;;;;2.28;1.67;;;6.10;91.90;;;;;;5027980;28;20041;-70
2023/03/27 07:51:37;;;;;;;3.53;1.67;;;6.10;91.50;;;;;;5018585;28;20121;-70
2023/03/27 07:54:03;;;;;;;3.97;2.00;;;6.20;91.40;;;;;;5025587;28;20029;-70
2023/03/27 07:56:32;;;;;;;5.38;2.20;;;6.20;91.60;;;;;;5040302;28;20036;-70
2023/03/27 07:58:59;;;;;;;3.08;1.85;;;6.30;91.50;;;;;;5022297;28;20068;-69
2023/03/27 08:01:27;;;;;;;3.78;2.08;;;6.30;91.40;;;;;;5018258;28;20030;-69
2023/03/27 08:03:53;;;;;;;3.72;1.88;;;6.30;91.60;;;;;;5031206;28;20025;-71
2023/03/27 08:06:19;;;;;;;3.72;2.20;;;6.40;91.40;;;;;;5046933;28;20116;-71
2023/03/27 08:08:45;;;;;;;3.15;1.70;;;6.40;90.90;;;;;;5024757;28;20026;-71
2023/03/27 08:11:10;;;;;;;3.70;2.50;;;6.40;90.00;;;;;;5042387;28;20472;-71
2023/03/27 08:13:36;;;;;;;3.10;2.10;;;6.40;90.50;;;;;;5031467;28;20038;-71
2023/03/27 08:16:08;;;;;;;1.92;1.50;;;6.50;90.50;;;;;;5043304;28;20032;-70
2023/03/27 08:18:35;;;;;;;4.07;1.65;;;6.60;90.40;;;;;;5033354;28;20029;-71
2023/03/27 08:21:02;;;;;;;5.43;1.85;;;6.60;90.40;;;;;;5031878;28;20538;-71
2023/03/27 08:23:29;;;;;;;4.00;1.60;;;6.60;89.20;;;;;;5018226;28;20474;-71
2023/03/27 08:25:59;;;;;;;3.80;1.80;;;6.70;89.60;;;;;;5031740;28;20043;-70
2023/03/27 08:28:28;;;;;;;2.28;1.00;;;6.70;88.10;;;;;;5039499;28;20415;-71
2023/03/27 08:30:54;;;;;;;2.97;1.52;;;6.70;88.40;;;;;;5023319;28;20022;-72
2023/03/27 08:33:21;;;;;;;2.10;1.58;;;6.80;89.00;;;;;;5016405;28;20503;-71
2023/03/27 08:35:49;;;;;;;4.00;1.88;;;7.00;89.00;;;;;;5021655;28;20045;-71
2023/03/27 08:38:16;;;;;;;2.80;1.50;;;7.00;88.40;;;;;;5018775;28;20053;-72
2023/03/27 08:40:52;;;;;;;3.45;1.55;;;7.00;87.70;;;;;;5031500;28;20030;-71
2023/03/27 08:43:21;;;;;;;2.75;1.70;;;7.00;87.80;;;;;;5019787;28;20060;-72
2023/03/27 08:45:56;;;;;;;2.35;1.70;;;7.10;85.00;;;;;;5011821;28;20048;-69
2023/03/27 08:48:36;;;;;;;2.53;1.53;;;7.10;86.20;;;;;;5015637;28;20037;-70
2023/03/27 08:51:09;;;;;;;3.45;1.80;;;7.10;86.70;;;;;;5025224;28;20140;-73
2023/03/27 08:53:50;;;;;;;6.32;2.10;;;7.20;87.20;;;;;;5021417;28;20072;-72
2023/03/27 08:56:19;;;;;;;3.25;1.80;;;7.30;85.20;;;;;;5021575;28;20065;-69
2023/03/27 08:58:45;;;;;;;7.03;1.98;;;7.30;84.90;;;;;;5029809;28;20026;-71
2023/03/27 09:01:14;;;;;;;2.05;1.40;;;7.40;84.70;;;;;;5017675;28;20073;-70
2023/03/27 09:03:49;;;;;;;2.88;1.60;;;7.50;84.00;;;;;;5016251;28;20022;-70
2023/03/27 09:06:30;;;;;;;2.83;1.38;;;7.40;83.50;;;;;;5017545;28;20509;-71
2023/03/27 09:09:22;;;;;;;3.08;1.70;;;7.40;83.30;;;;;;5010612;28;20049;-68
2023/03/27 09:12:17;;;;;;;2.72;1.70;;;7.40;83.60;;;;;;5022473;28;20042;-69
2023/03/27 09:14:47;;;;;;;3.28;1.70;;;7.40;84.20;;;;;;5023653;28;20022;-69
2023/03/27 09:17:30;;;;;;;1.92;1.35;;;7.50;84.60;;;;;;5026071;28;20040;-69
2023/03/27 09:20:23;;;;;;;3.92;1.42;;;7.50;82.20;;;;;;5024910;28;20076;-68
2023/03/27 09:22:53;;;;;;;3.20;1.75;;;7.50;83.00;;;;;;5015341;28;20445;-68
2023/03/27 09:25:22;;;;;;;3.00;1.75;;;7.60;83.70;;;;;;5021837;28;20292;-68
2023/03/27 09:27:48;;;;;;;4.30;1.50;;;7.80;82.80;;;;;;5016134;28;20087;-69
2023/03/27 09:30:30;;;;;;;3.67;1.80;;;7.90;83.60;;;;;;5032296;28;20108;-70
2023/03/27 09:33:10;;;;;;;2.83;1.80;;;8.00;83.00;;;;;;5018496;28;20033;-70
2023/03/27 09:35:37;;;;;;;3.28;1.55;;;8.10;81.10;;;;;;5027578;28;20104;-70
2023/03/27 09:38:49;;;;;;;3.05;1.58;;;8.10;81.20;;;;;;5012783;28;20065;-71
2023/03/27 09:41:36;;;;;;;3.65;1.50;;;8.10;81.50;;;;;;5014991;28;20045;-70
2023/03/27 09:44:11;;;;;;;2.88;1.58;;;8.20;80.30;;;;;;5028206;28;20038;-71
2023/03/27 09:46:41;;;;;;;4.30;1.50;;;8.20;80.50;;;;;;5021426;28;20112;-69
2023/03/27 09:49:19;;;;;;;2.08;1.50;;;8.40;80.60;;;;;;5010214;28;20033;-69
2023/03/27 09:51:54;;;;;;;2.90;1.58;;;8.40;80.60;;;;;;5026288;28;20051;-68
2023/03/27 09:54:23;;;;;;;5.40;1.30;;;8.40;78.80;;;;;;5016275;28;20478;-69
2023/03/27 09:57:05;;;;;;;3.90;2.15;;;8.30;78.60;;;;;;5018973;28;20037;-68
2023/03/27 09:59:37;;;;;;;2.15;1.50;;;8.40;79.90;;;;;;5021720;28;20042;-69
2023/03/27 10:02:29;;;;;;;2.60;1.35;;;8.50;79.30;;;;;;5011392;28;20030;-69
2023/03/27 10:05:16;;;;;;;2.85;1.33;;;8.40;79.10;;;;;;5009867;28;20057;-68
2023/03/27 10:07:43;;;;;;;2.70;1.73;;;8.30;79.00;;;;;;5015816;28;20480;-68
2023/03/27 10:10:14;;;;;;;3.88;1.45;;;8.40;79.00;;;;;;5011289;28;20460;-67
2023/03/27 10:12:41;;;;;;;2.53;1.67;;;8.40;78.20;;;;;;5015069;28;20049;-68
2023/03/27 10:15:31;;;;;;;4.28;1.67;;;8.40;78.30;;;;;;5007874;28;20049;-68
2023/03/27 10:17:59;;;;;;;2.97;1.50;;;8.50;78.90;;;;;;5008301;28;20041;-68
2023/03/27 10:20:25;;;;;;;3.47;2.03;;;8.60;78.90;;;;;;5012120;28;20042;-68
2023/03/27 10:22:58;;;;;;;3.40;1.70;;;8.60;77.30;;;;;;5015353;28;20708;-69
2023/03/27 10:25:33;;;;;;;3.33;1.88;;;8.60;76.50;;;;;;5015494;28;20029;-69
2023/03/27 10:28:15;;;;;;;1.85;1.27;;;8.60;76.10;;;;;;5025773;28;20033;-69
2023/03/27 10:30:41;;;;;;;5.60;1.73;;;8.60;75.70;;;;;;5012608;28;20057;-69
2023/03/27 10:33:06;;;;;;;2.15;1.50;;;8.60;75.90;;;;;;5020515;28;20433;-69
2023/03/27 10:35:42;;;;;;;2.25;1.30;;;8.60;74.60;;;;;;5017433;28;20413;-68
2023/03/27 10:38:14;;;;;;;2.20;1.33;;;8.60;73.80;;;;;;5014124;28;20322;-69
2023/03/27 10:40:44;;;;;;;3.17;1.80;;;8.60;72.20;;;;;;5016083;28;20510;-69
2023/03/27 10:43:36;;;;;;;2.90;1.58;;;8.60;73.50;;;;;;5023072;28;20414;-70
2023/03/27 10:46:06;;;;;;;4.03;1.50;;;8.70;74.40;;;;;;5021005;28;20057;-70
2023/03/27 10:48:59;;;;;;;3.88;1.55;;;8.70;74.10;;;;;;5031603;28;20372;-70
2023/03/27 10:51:49;;;;;;;2.22;1.38;;;8.80;74.40;;;;;;5029166;28;20018;-69
2023/03/27 10:54:33;;;;;;;4.22;1.80;;;9.00;73.60;;;;;;5021806;28;20025;-69
2023/03/27 10:57:13;;;;;;;2.65;1.67;;;9.10;73.10;;;;;;5030841;28;20072;-70
2023/03/27 11:00:21;;;;;;;2.38;1.33;;;9.20;72.10;;;;;;5028995;28;20045;-69
2023/03/27 11:03:24;;;;;;;3.00;1.30;;;9.30;72.80;;;;;;5020578;28;20424;-69
2023/03/27 11:05:53;;;;;;;2.47;1.80;;;9.30;72.10;;;;;;5021170;28;20022;-69
2023/03/27 11:08:47;;;;;;;3.85;1.92;;;9.30;71.20;;;;;;5029507;28;20115;-69
2023/03/27 11:11:25;;;;;;;2.95;1.52;;;9.20;71.80;;;;;;5029992;28;20053;-70
2023/03/27 11:13:53;;;;;;;2.40;1.30;;;9.10;72.10;;;;;;5021196;28;20022;-69
2023/03/27 11:16:43;;;;;;;2.38;1.48;;;9.10;72.40;;;;;;5013929;28;20034;-68
2023/03/27 11:19:08;;;;;;;5.63;1.77;;;9.10;71.70;;;;;;5026996;28;20503;-69
2023/03/27 11:21:49;;;;;;;2.95;1.75;;;9.20;72.40;;;;;;5021534;28;20029;-69
2023/03/27 11:24:29;;;;;;;2.72;1.30;;;9.20;71.90;;;;;;5020880;28;21002;-68
2023/03/27 11:27:00;;;;;;;1.65;1.00;;;9.30;71.20;;;;;;5021757;28;20083;-68
2023/03/27 11:29:31;;;;;;;5.28;2.03;;;9.30;72.10;;;;;;5026060;28;20025;-69
2023/03/27 11:32:10;;;;;;;2.50;1.50;;;9.40;71.10;;;;;;5019724;28;20022;-69
2023/03/27 11:34:46;;;;;;;3.33;1.30;;;9.40;69.80;;;;;;5021491;28;20208;-71
2023/03/27 11:37:30;;;;;;;3.25;1.33;;;9.40;68.50;;;;;;5017769;28;20034;-69
2023/03/27 11:40:04;;;;;;;2.92;1.17;;;9.40;68.20;;;;;;5020519;28;20083;-69
2023/03/27 11:42:33;;;;;;;4.65;1.42;;;9.40;67.00;;;;;;5023197;28;20436;-70
2023/03/27 11:45:03;;;;;;;2.63;1.30;;;9.40;67.50;;;;;;5032602;28;20069;-70
2023/03/27 11:48:11;;;;;;;2.65;1.42;;;9.50;67.60;;;;;;5010509;28;20356;-68
2023/03/27 11:50:44;;;;;;;2.60;1.60;;;9.60;68.00;;;;;;5025239;28;20443;-69
2023/03/27 11:53:50;;;;;;;2.72;1.48;;;9.70;68.30;;;;;;5016027;28;20029;-68
2023/03/27 11:56:37;;;;;;;1.88;1.10;;;9.80;67.10;;;;;;5016601;28;20049;-69
2023/03/27 11:59:24;;;;;;;2.65;1.30;;;9.80;67.30;;;;;;5013081;28;20046;-70
2023/03/27 12:02:23;;;;;;;3.72;1.40;;;9.80;67.30;;;;;;5030710;28;20030;-69
2023/03/27 12:05:20;;;;;;;2.30;1.70;;;9.70;67.80;;;;;;5004847;28;20034;-68
2023/03/27 12:08:08;;;;;;;4.47;1.60;;;9.60;67.70;;;;;;5019705;28;20040;-70
2023/03/27 12:10:37;;;;;;;2.60;1.58;;;9.60;66.90;;;;;;5028165;28;20024;-69
2023/03/27 12:13:48;;;;;;;3.83;1.70;;;9.50;66.90;;;;;;5026831;28;20508;-70
2023/03/27 12:16:41;;;;;;;7.55;2.25;;;9.50;66.30;;;;;;5033003;28;20045;-69
2023/03/27 12:19:40;;;;;;;2.60;1.52;;;9.40;65.90;;;;;;5023066;28;20040;-69
2023/03/27 12:22:26;;;;;;;3.40;1.35;;;9.30;65.70;;;;;;5019962;28;20038;-69
2023/03/27 12:25:31;;;;;;;3.30;1.55;;;9.30;66.70;;;;;;5012820;28;20022;-69
2023/03/27 12:28:12;;;;;;;2.15;1.33;;;9.20;66.90;;;;;;5012294;28;20037;-69
2023/03/27 12:30:57;;;;;;;3.67;1.40;;;9.20;67.50;;;;;;5027001;28;20087;-69
2023/03/27 12:33:30;;;;;;;2.28;1.17;;;9.20;67.60;;;;;;5014193;28;20026;-69
2023/03/27 12:36:02;;;;;;;1.95;1.20;;;9.20;67.60;;;;;;5017788;28;20037;-69
2023/03/27 12:38:29;;;;;;;2.97;1.42;;;9.10;67.60;;;;;;5028252;28;20030;-69
2023/03/27 12:41:01;;;;;;;5.25;1.95;;;9.10;68.20;;;;;;5028792;28;20393;-68
2023/03/27 12:43:38;;;;;;;4.47;1.67;;;9.30;68.50;;;;;;5014037;28;20030;-68
2023/03/27 12:46:11;;;;;;;3.97;1.40;;;9.20;68.50;;;;;;5019459;28;20037;-69
2023/03/27 12:48:55;;;;;;;5.38;1.20;;;9.30;68.40;;;;;;5014840;28;20032;-69
2023/03/27 12:51:40;;;;;;;2.78;1.50;;;9.30;66.90;;;;;;5016858;28;20025;-68
2023/03/27 12:54:11;;;;;;;;;;;9.30;67.30;;;;;;5021147;28;20017;-68
2023/03/27 12:56:37;;;;;;;4.20;1.65;;;9.30;67.60;;;;;;5031269;28;19916;-68
2023/03/27 12:59:25;;;;;;;4.35;1.23;;;9.30;66.80;;;;;;5028348;28;20485;-68
2023/03/27 13:01:50;;;;;;;6.47;1.55;;;9.40;67.90;;;;;;5029337;28;20047;-69
2023/03/27 13:04:52;;;;;;;2.90;1.30;;;9.50;67.60;;;;;;5020724;28;20029;-69
2023/03/27 13:07:23;;;;;;;5.57;1.52;;;9.50;67.70;;;;;;5021032;28;20040;-69
2023/03/27 13:10:02;;;;;;;3.08;1.23;;;9.40;66.10;;;;;;5017053;28;20514;-68
2023/03/27 13:12:34;;;;;;;2.65;1.38;;;9.40;67.30;;;;;;5029913;28;20037;-68
2023/03/27 13:15:37;;;;;;;3.30;1.42;;;9.30;66.50;;;;;;5026351;28;20583;-69
2023/03/27 13:18:21;;;;;;;2.28;1.30;;;9.10;66.90;;;;;;5017455;28;20120;-68
2023/03/27 13:21:14;;;;;;;3.85;1.50;;;9.10;67.90;;;;;;5013399;28;20040;-68
2023/03/27 13:24:20;;;;;;;3.80;1.48;;;9.10;68.90;;;;;;5016947;28;20068;-69
2023/03/27 13:27:01;;;;;;;2.90;1.20;;;9.00;69.70;;;;;;5023367;28;20025;-67
2023/03/27 13:29:31;;;;;;;4.72;1.55;;;8.90;70.20;;;;;;5041547;28;20029;-68